Terminal Aerodrome Forecast
Issued by NWS

Home | Current Version | Previous Version | Text Only | Print | Product List | Glossary On
Versions: 1 2 3 4 5 6 7 8 9 10 11 12 13 14 15 16 17 18 19 20 21
000
FTUS41 KCAR 292328
TAFBHB
TAF
KBHB 292328Z 3000/3024 18004KT P6SM SCT250
     FM300300 18002KT 4SM BR SCT003
     FM300500 18002KT 1SM BR BKN003
     FM301200 16007KT P6SM BKN120
      AMD LTD TO CLD VIS AND WIND=

USA.gov is the U.S. government's official web portal to all federal, state and local government web resources and services.